createdAt,value
2022-12-06T00:01:33.819Z,100361.00
2022-12-06T00:04:06.775Z,100363.00
2022-12-06T00:06:38.588Z,100362.00
2022-12-06T00:09:09.351Z,100357.00
2022-12-06T00:11:38.788Z,100360.00
2022-12-06T00:14:08.936Z,100354.00
2022-12-06T00:16:37.875Z,100377.00
2022-12-06T00:19:07.158Z,100365.00
2022-12-06T00:21:37.524Z,100365.00
2022-12-06T00:24:09.254Z,100363.00
2022-12-06T00:26:38.789Z,100373.00
2022-12-06T00:29:08.874Z,100370.00
2022-12-06T00:31:37.557Z,100360.00
2022-12-06T00:34:06.507Z,100360.00
2022-12-06T00:36:36.272Z,100363.00
2022-12-06T00:39:06.876Z,100367.00
2022-12-06T00:41:37.260Z,100355.00
2022-12-06T00:44:06.136Z,100358.00
2022-12-06T00:46:35.868Z,100359.00
2022-12-06T00:49:06.075Z,100359.00
2022-12-06T00:51:35.948Z,100364.00
2022-12-06T00:54:04.782Z,100365.00
2022-12-06T00:56:35.530Z,100359.00
2022-12-06T00:59:05.778Z,100362.00
2022-12-06T01:01:36.191Z,100357.00
2022-12-06T01:04:07.109Z,100362.00
2022-12-06T01:06:37.608Z,100357.00
2022-12-06T01:09:09.687Z,100360.00
2022-12-06T01:11:38.691Z,100352.00
2022-12-06T01:14:09.072Z,100355.00
2022-12-06T01:16:37.827Z,100363.00
2022-12-06T01:19:07.988Z,100354.00
2022-12-06T01:21:36.710Z,100354.00
2022-12-06T01:24:05.852Z,100362.00
2022-12-06T01:26:36.008Z,100346.00
2022-12-06T01:29:06.912Z,100353.00
2022-12-06T01:31:38.957Z,100343.00
2022-12-06T01:34:09.237Z,100342.00
2022-12-06T01:36:37.866Z,100341.00
2022-12-06T01:39:10.475Z,100330.00
2022-12-06T01:41:40.329Z,100335.00
2022-12-06T01:44:41.888Z,100325.00
2022-12-06T01:47:16.210Z,100330.00
2022-12-06T01:49:48.723Z,100324.00
2022-12-06T01:52:17.718Z,100311.00
2022-12-06T01:54:46.744Z,100318.00
2022-12-06T01:57:17.317Z,100305.00
2022-12-06T01:59:48.098Z,100306.00
2022-12-06T02:02:16.916Z,100298.00
2022-12-06T02:04:46.317Z,100291.00
2022-12-06T02:07:15.617Z,100276.00
2022-12-06T02:09:45.966Z,100284.00
2022-12-06T02:12:16.170Z,100285.00
2022-12-06T02:14:48.369Z,100277.00
2022-12-06T02:17:28.336Z,100279.00
2022-12-06T02:20:14.516Z,100271.00
2022-12-06T02:23:16.436Z,100259.00
2022-12-06T02:26:16.331Z,100265.00
2022-12-06T02:29:14.845Z,100268.00
2022-12-06T02:31:51.213Z,100257.00
2022-12-06T02:34:27.141Z,100272.00
2022-12-06T02:37:04.906Z,100270.00
2022-12-06T02:39:37.379Z,100259.00
2022-12-06T02:42:09.583Z,100262.00
2022-12-06T02:44:41.979Z,100266.00
2022-12-06T02:47:14.112Z,100259.00
2022-12-06T02:49:46.642Z,100256.00
2022-12-06T02:52:16.347Z,100258.00
2022-12-06T02:54:47.445Z,100257.00
2022-12-06T02:57:16.030Z,100255.00
2022-12-06T02:59:53.391Z,100258.00
2022-12-06T03:02:24.596Z,100256.00
2022-12-06T03:05:09.503Z,100257.00
2022-12-06T03:07:42.608Z,100249.00
2022-12-06T03:10:23.418Z,100248.00
2022-12-06T03:13:01.670Z,100247.00
2022-12-06T03:15:38.572Z,100236.00
2022-12-06T03:18:15.457Z,100248.00
2022-12-06T03:20:48.538Z,100246.00
2022-12-06T03:23:22.230Z,100240.00
2022-12-06T03:25:52.842Z,100244.00
2022-12-06T03:28:23.334Z,100233.00
2022-12-06T03:30:53.951Z,100238.00
2022-12-06T03:33:26.787Z,100236.00
2022-12-06T03:35:58.586Z,100235.00
2022-12-06T03:38:35.541Z,100227.00
2022-12-06T03:41:07.340Z,100234.00
2022-12-06T03:43:36.601Z,100226.00
2022-12-06T03:46:12.288Z,100221.00
2022-12-06T03:48:45.868Z,100221.00
2022-12-06T03:51:19.439Z,100223.00
2022-12-06T03:53:50.113Z,100219.00
2022-12-06T03:56:19.130Z,100224.00
2022-12-06T03:58:47.961Z,100207.00
2022-12-06T04:01:16.974Z,100217.00
2022-12-06T04:03:47.171Z,100217.00
2022-12-06T04:06:16.422Z,100208.00
2022-12-06T04:08:45.061Z,100219.00
2022-12-06T04:11:13.670Z,100215.00
2022-12-06T04:13:42.664Z,100213.00
2022-12-06T04:16:25.486Z,100208.00
2022-12-06T04:18:55.975Z,100213.00
2022-12-06T04:21:41.712Z,100203.00
2022-12-06T04:24:10.495Z,100205.00
2022-12-06T04:26:39.534Z,100209.00
2022-12-06T04:29:25.803Z,100214.00
2022-12-06T04:32:11.870Z,100214.00
2022-12-06T04:34:59.400Z,100216.00
2022-12-06T04:37:45.464Z,100207.00
2022-12-06T04:40:14.198Z,100205.00
2022-12-06T04:42:59.985Z,100201.00
2022-12-06T04:45:28.618Z,100209.00
2022-12-06T04:47:57.438Z,100195.00
2022-12-06T04:50:27.660Z,100199.00
2022-12-06T04:52:56.387Z,100190.00
2022-12-06T04:55:25.217Z,100192.00
2022-12-06T04:57:53.847Z,100193.00
2022-12-06T05:00:22.809Z,100203.00
2022-12-06T05:02:51.453Z,100189.00
2022-12-06T05:05:20.224Z,100192.00
2022-12-06T05:07:50.493Z,100189.00
2022-12-06T05:10:19.466Z,100189.00
2022-12-06T05:12:48.115Z,100183.00
2022-12-06T05:15:17.197Z,100181.00
2022-12-06T05:17:45.975Z,100188.00
2022-12-06T05:20:15.405Z,100197.00
2022-12-06T05:22:44.110Z,100188.00
2022-12-06T05:25:14.962Z,100184.00
2022-12-06T05:27:43.717Z,100185.00
2022-12-06T05:30:13.315Z,100184.00
2022-12-06T05:32:42.696Z,100176.00
2022-12-06T05:35:11.832Z,100186.00
2022-12-06T05:37:40.648Z,100177.00
2022-12-06T05:40:10.184Z,100183.00
2022-12-06T05:42:41.857Z,100183.00
2022-12-06T05:45:11.840Z,100180.00
2022-12-06T05:47:41.032Z,100174.00
2022-12-06T05:50:10.602Z,100182.00
2022-12-06T05:52:39.224Z,100182.00
2022-12-06T05:55:08.673Z,100184.00
2022-12-06T05:57:40.101Z,100184.00
2022-12-06T06:00:13.791Z,100187.00
2022-12-06T06:02:42.734Z,100183.00
2022-12-06T06:05:11.994Z,100181.00
2022-12-06T06:07:40.761Z,100174.00
2022-12-06T06:10:10.106Z,100176.00
2022-12-06T06:12:38.836Z,100179.00
2022-12-06T06:15:08.547Z,100175.00
2022-12-06T06:17:39.323Z,100177.00
2022-12-06T06:20:10.725Z,100182.00
2022-12-06T06:22:41.273Z,100178.00
2022-12-06T06:25:10.874Z,100171.00
2022-12-06T06:27:39.945Z,100177.00
2022-12-06T06:30:10.815Z,100174.00
2022-12-06T06:32:41.387Z,100176.00
2022-12-06T06:35:10.696Z,100174.00
2022-12-06T06:37:39.453Z,100177.00
2022-12-06T06:40:09.252Z,100183.00
2022-12-06T06:42:38.010Z,100185.00
2022-12-06T06:45:07.739Z,100184.00
2022-12-06T06:47:36.748Z,100177.00
2022-12-06T06:50:08.198Z,100184.00
2022-12-06T06:52:36.910Z,100188.00
2022-12-06T06:55:06.310Z,100184.00
2022-12-06T06:57:36.216Z,100182.00
2022-12-06T07:00:06.847Z,100179.00
2022-12-06T07:02:35.646Z,100186.00
2022-12-06T07:05:06.173Z,100182.00
2022-12-06T07:07:35.188Z,100178.00
2022-12-06T07:10:03.981Z,100184.00
2022-12-06T07:12:32.790Z,100189.00
2022-12-06T07:15:01.472Z,100187.00
2022-12-06T07:17:30.165Z,100188.00
2022-12-06T07:19:59.039Z,100191.00
2022-12-06T07:22:30.548Z,100185.00
2022-12-06T07:24:59.373Z,100197.00
2022-12-06T07:27:28.268Z,100194.00
2022-12-06T07:29:57.810Z,100190.00
2022-12-06T07:32:26.863Z,100191.00
2022-12-06T07:34:55.711Z,100190.00
2022-12-06T07:37:24.670Z,100190.00
2022-12-06T07:39:54.893Z,100189.00
2022-12-06T07:42:40.914Z,100182.00
2022-12-06T07:45:12.510Z,100184.00
2022-12-06T07:47:43.650Z,100186.00
2022-12-06T07:50:18.280Z,100183.00
2022-12-06T07:52:48.615Z,100189.00
2022-12-06T07:55:19.425Z,100181.00
2022-12-06T07:57:49.179Z,100185.00
2022-12-06T08:00:18.665Z,100197.00
2022-12-06T08:02:47.681Z,100196.00
2022-12-06T08:05:16.515Z,100191.00
2022-12-06T08:07:45.492Z,100200.00
2022-12-06T08:10:14.291Z,100189.00
2022-12-06T08:12:44.671Z,100189.00
2022-12-06T08:15:14.189Z,100191.00
2022-12-06T08:17:43.357Z,100188.00
2022-12-06T08:20:13.640Z,100186.00
2022-12-06T08:22:42.625Z,100183.00
2022-12-06T08:25:11.997Z,100184.00
2022-12-06T08:27:40.748Z,100192.00
2022-12-06T08:30:11.552Z,100198.00
2022-12-06T08:32:40.429Z,100195.00
2022-12-06T08:35:09.917Z,100187.00
2022-12-06T08:37:38.875Z,100188.00
2022-12-06T08:40:09.237Z,100185.00
2022-12-06T08:42:38.149Z,100192.00
2022-12-06T08:45:08.141Z,100186.00
2022-12-06T08:47:38.454Z,100189.00
2022-12-06T08:50:08.479Z,100202.00
2022-12-06T08:52:37.539Z,100190.00
2022-12-06T08:55:06.919Z,100184.00
2022-12-06T08:57:35.634Z,100189.00
2022-12-06T09:00:05.259Z,100189.00
2022-12-06T09:02:33.949Z,100189.00
2022-12-06T09:05:04.174Z,100194.00
2022-12-06T09:07:33.012Z,100193.00
2022-12-06T09:10:02.476Z,100192.00
2022-12-06T09:12:31.298Z,100183.00
2022-12-06T09:14:59.902Z,100182.00
2022-12-06T09:17:28.587Z,100180.00
2022-12-06T09:20:02.118Z,100184.00
2022-12-06T09:22:35.461Z,100178.00
2022-12-06T09:25:04.238Z,100183.00
2022-12-06T09:27:33.477Z,100182.00
2022-12-06T09:30:02.443Z,100188.00
2022-12-06T09:32:31.361Z,100177.00
2022-12-06T09:35:00.040Z,100188.00
2022-12-06T09:37:28.692Z,100175.00
2022-12-06T09:40:03.871Z,100170.00
2022-12-06T09:42:57.364Z,100166.00
2022-12-06T09:45:58.137Z,100165.00
2022-12-06T09:49:02.510Z,100161.00
2022-12-06T09:51:51.417Z,100157.00
2022-12-06T09:54:34.477Z,100156.00
2022-12-06T09:57:08.494Z,100156.00
2022-12-06T09:59:49.445Z,100151.00
2022-12-06T10:02:33.545Z,100156.00
2022-12-06T10:05:23.001Z,100154.00
2022-12-06T10:07:59.978Z,100149.00
2022-12-06T10:10:39.112Z,100145.00
2022-12-06T10:13:14.457Z,100151.00
2022-12-06T10:15:54.348Z,100143.00
2022-12-06T10:18:40.098Z,100131.00
2022-12-06T10:21:18.754Z,100143.00
2022-12-06T10:24:02.196Z,100132.00
2022-12-06T10:26:35.410Z,100133.00
2022-12-06T10:29:14.772Z,100131.00
2022-12-06T10:31:53.948Z,100136.00
2022-12-06T10:34:32.313Z,100128.00
2022-12-06T10:37:09.659Z,100121.00
2022-12-06T10:39:51.858Z,100117.00
2022-12-06T10:42:31.820Z,100114.00
2022-12-06T10:45:29.243Z,100117.00
2022-12-06T10:47:58.863Z,100110.00
2022-12-06T10:50:31.065Z,100118.00
2022-12-06T10:53:05.056Z,100116.00
2022-12-06T10:55:37.550Z,100112.00
2022-12-06T10:58:17.881Z,100113.00
2022-12-06T11:00:55.928Z,100116.00
2022-12-06T11:03:31.097Z,100116.00
2022-12-06T11:06:03.944Z,100112.00
2022-12-06T11:08:37.168Z,100102.00
2022-12-06T11:11:07.358Z,100103.00
2022-12-06T11:13:39.406Z,100111.00
2022-12-06T11:16:15.425Z,100103.00
2022-12-06T11:18:45.888Z,100105.00
2022-12-06T11:21:25.139Z,100107.00
2022-12-06T11:24:02.288Z,100108.00
2022-12-06T11:26:37.438Z,100104.00
2022-12-06T11:29:10.922Z,100096.00
2022-12-06T11:31:45.480Z,100097.00
2022-12-06T11:34:19.777Z,100103.00
2022-12-06T11:36:55.246Z,100091.00
2022-12-06T11:39:28.553Z,100097.00
2022-12-06T11:41:59.588Z,100095.00
2022-12-06T11:44:30.495Z,100089.00
2022-12-06T11:47:03.577Z,100097.00
2022-12-06T11:49:35.872Z,100093.00
2022-12-06T11:52:08.662Z,100089.00
2022-12-06T11:54:43.579Z,100092.00
2022-12-06T11:57:22.823Z,100081.00
2022-12-06T12:00:16.371Z,100090.00
2022-12-06T12:02:48.388Z,100081.00
2022-12-06T12:05:23.085Z,100082.00
2022-12-06T12:07:55.025Z,100076.00
2022-12-06T12:10:32.873Z,100070.00
2022-12-06T12:13:35.953Z,100079.00
2022-12-06T12:16:12.599Z,100074.00
2022-12-06T12:18:49.865Z,100074.00
2022-12-06T12:21:29.268Z,100065.00
2022-12-06T12:23:58.406Z,100069.00
2022-12-06T12:26:37.815Z,100062.00
2022-12-06T12:29:18.423Z,100058.00
2022-12-06T12:31:56.291Z,100055.00
2022-12-06T12:34:29.142Z,100054.00
2022-12-06T12:37:00.785Z,100060.00
2022-12-06T12:39:35.946Z,100056.00
2022-12-06T12:42:05.378Z,100056.00
2022-12-06T12:44:38.502Z,100054.00
2022-12-06T12:47:18.739Z,100056.00
2022-12-06T12:50:20.154Z,100047.00
2022-12-06T12:52:48.938Z,100050.00
2022-12-06T12:55:20.608Z,100047.00
2022-12-06T12:57:51.235Z,100049.00
2022-12-06T13:00:22.243Z,100044.00
2022-12-06T13:02:56.394Z,100046.00
2022-12-06T13:05:34.521Z,100058.00
2022-12-06T13:08:12.562Z,100046.00
2022-12-06T13:10:43.628Z,100046.00
2022-12-06T13:13:17.557Z,100049.00
2022-12-06T13:15:49.645Z,100047.00
2022-12-06T13:18:23.482Z,100055.00
2022-12-06T13:20:55.768Z,100063.00
2022-12-06T13:23:28.492Z,100061.00
2022-12-06T13:26:03.608Z,100050.00
2022-12-06T13:28:36.461Z,100047.00
2022-12-06T13:31:09.304Z,100050.00
2022-12-06T13:33:43.468Z,100045.00
2022-12-06T13:36:16.636Z,100049.00
2022-12-06T13:38:45.763Z,100043.00
2022-12-06T13:41:36.199Z,100035.00
2022-12-06T13:44:04.886Z,100040.00
2022-12-06T13:46:34.779Z,100042.00
2022-12-06T13:49:05.841Z,100034.00
2022-12-06T13:51:49.348Z,100040.00
2022-12-06T13:54:41.911Z,100038.00
2022-12-06T13:57:25.986Z,100037.00
2022-12-06T13:59:54.809Z,100030.00
2022-12-06T14:02:53.991Z,100041.00
2022-12-06T14:06:06.060Z,100036.00
2022-12-06T14:08:40.540Z,100031.00
2022-12-06T14:11:22.400Z,100040.00
2022-12-06T14:14:02.086Z,100037.00
2022-12-06T14:16:35.428Z,100038.00
2022-12-06T14:19:14.424Z,100032.00
2022-12-06T14:21:45.919Z,100038.00
2022-12-06T14:24:36.704Z,100031.00
2022-12-06T14:27:13.114Z,100034.00
2022-12-06T14:29:42.674Z,100041.00
2022-12-06T14:32:11.686Z,100034.00
2022-12-06T14:34:40.603Z,100033.00
2022-12-06T14:37:21.760Z,100037.00
2022-12-06T14:39:54.770Z,100041.00
2022-12-06T14:42:41.093Z,100035.00
2022-12-06T14:45:15.589Z,100033.00
2022-12-06T14:47:46.085Z,100024.00
2022-12-06T14:50:34.965Z,100034.00
2022-12-06T14:53:30.128Z,100024.00
2022-12-06T14:56:34.858Z,100038.00
2022-12-06T15:00:10.888Z,100041.00
2022-12-06T15:02:36.899Z,100040.00
2022-12-06T15:08:55.091Z,100045.00
2022-12-06T15:11:53.214Z,100039.00
2022-12-06T15:14:27.305Z,100035.00
2022-12-06T15:17:08.008Z,100036.00
2022-12-06T15:19:40.007Z,100042.00
2022-12-06T15:22:22.961Z,100050.00
2022-12-06T15:24:56.476Z,100043.00
2022-12-06T15:27:28.008Z,100043.00
2022-12-06T15:29:57.223Z,100039.00
2022-12-06T15:32:27.443Z,100047.00
2022-12-06T15:34:56.139Z,100029.00
2022-12-06T15:37:50.153Z,100042.00
2022-12-06T15:40:21.201Z,100037.00
2022-12-06T15:42:51.742Z,100038.00
2022-12-06T15:48:21.771Z,100052.00
2022-12-06T15:51:35.553Z,100037.00
2022-12-06T15:55:19.371Z,100049.00
2022-12-06T15:57:48.128Z,100044.00
2022-12-06T16:00:37.479Z,100039.00
2022-12-06T16:03:10.159Z,100038.00
2022-12-06T16:05:39.383Z,100036.00
2022-12-06T16:08:11.576Z,100041.00
2022-12-06T16:11:10.221Z,100043.00
2022-12-06T16:13:31.488Z,100046.00
2022-12-06T16:16:02.075Z,100045.00
2022-12-06T16:18:31.570Z,100042.00
2022-12-06T16:21:04.285Z,100048.00
2022-12-06T16:24:19.216Z,100048.00
2022-12-06T16:27:15.231Z,100051.00
2022-12-06T16:29:43.841Z,100042.00
2022-12-06T16:32:13.835Z,100040.00
2022-12-06T16:34:42.384Z,100039.00
2022-12-06T16:37:12.775Z,100048.00
2022-12-06T16:39:41.625Z,100036.00
2022-12-06T16:42:10.244Z,100043.00
2022-12-06T16:44:51.177Z,100037.00
2022-12-06T16:49:49.731Z,100050.00
2022-12-06T16:52:18.752Z,100053.00
2022-12-06T16:54:47.646Z,100041.00
2022-12-06T16:57:19.268Z,100039.00
2022-12-06T16:59:48.098Z,100034.00
2022-12-06T17:02:30.026Z,100043.00
2022-12-06T17:05:01.122Z,100030.00
2022-12-06T17:07:30.683Z,100027.00
2022-12-06T17:09:59.417Z,100038.00
2022-12-06T17:12:28.237Z,100038.00
2022-12-06T17:14:56.836Z,100037.00
2022-12-06T17:17:29.277Z,100038.00
2022-12-06T17:19:57.862Z,100038.00
2022-12-06T17:22:26.807Z,100032.00
2022-12-06T17:24:56.700Z,100035.00
2022-12-06T17:27:25.314Z,100041.00
2022-12-06T17:29:54.012Z,100045.00
2022-12-06T17:32:23.612Z,100042.00
2022-12-06T17:34:53.639Z,100042.00
2022-12-06T17:37:22.481Z,100049.00
2022-12-06T17:39:51.123Z,100045.00
2022-12-06T17:42:37.442Z,100051.00
2022-12-06T17:45:07.616Z,100049.00
2022-12-06T17:47:36.309Z,100047.00
2022-12-06T17:50:07.805Z,100029.00
2022-12-06T17:52:36.475Z,100039.00
2022-12-06T17:55:05.606Z,100029.00
2022-12-06T17:57:34.405Z,100034.00
2022-12-06T18:00:03.336Z,100034.00
2022-12-06T18:02:32.132Z,100043.00
2022-12-06T18:05:01.515Z,100035.00
2022-12-06T18:07:31.997Z,100039.00
2022-12-06T18:10:00.649Z,100042.00
2022-12-06T18:12:32.077Z,100043.00
2022-12-06T18:15:02.667Z,100040.00
2022-12-06T18:17:31.597Z,100040.00
2022-12-06T18:20:00.455Z,100051.00
2022-12-06T18:22:30.601Z,100047.00
2022-12-06T18:24:59.798Z,100039.00
2022-12-06T18:27:28.611Z,100047.00
2022-12-06T18:29:57.737Z,100043.00
2022-12-06T18:32:26.501Z,100047.00
2022-12-06T18:34:55.216Z,100051.00
2022-12-06T18:37:23.863Z,100050.00
2022-12-06T18:39:54.594Z,100053.00
2022-12-06T18:42:23.234Z,100054.00
2022-12-06T18:44:57.905Z,100042.00
2022-12-06T18:47:27.108Z,100052.00
2022-12-06T18:49:56.565Z,100050.00
2022-12-06T18:52:25.388Z,100050.00
2022-12-06T18:54:55.904Z,100056.00
2022-12-06T18:57:30.493Z,100054.00
2022-12-06T19:00:01.141Z,100046.00
2022-12-06T19:02:30.119Z,100053.00
2022-12-06T19:04:59.114Z,100042.00
2022-12-06T19:07:28.151Z,100043.00
2022-12-06T19:09:58.245Z,100052.00
2022-12-06T19:12:27.206Z,100048.00
2022-12-06T19:14:55.853Z,100058.00
2022-12-06T19:17:24.581Z,100062.00
2022-12-06T19:19:53.435Z,100061.00
2022-12-06T19:22:22.100Z,100058.00
2022-12-06T19:24:51.022Z,100068.00
2022-12-06T19:27:20.996Z,100067.00
2022-12-06T19:29:49.762Z,100060.00
2022-12-06T19:32:18.401Z,100074.00
2022-12-06T19:34:47.342Z,100062.00
2022-12-06T19:37:16.035Z,100062.00
2022-12-06T19:39:45.878Z,100061.00
2022-12-06T19:42:31.684Z,100062.00
2022-12-06T19:45:01.807Z,100065.00
2022-12-06T19:47:31.321Z,100061.00
2022-12-06T19:50:00.758Z,100060.00
2022-12-06T19:52:31.189Z,100056.00
2022-12-06T19:54:59.887Z,100063.00
2022-12-06T19:57:28.661Z,100064.00
2022-12-06T19:59:57.369Z,100064.00
2022-12-06T20:02:27.484Z,100059.00
2022-12-06T20:04:56.188Z,100052.00
2022-12-06T20:07:24.844Z,100055.00
2022-12-06T20:09:53.513Z,100054.00
2022-12-06T20:12:22.103Z,100058.00
2022-12-06T20:14:51.740Z,100057.00
2022-12-06T20:17:23.645Z,100054.00
2022-12-06T20:19:53.798Z,100055.00
2022-12-06T20:22:22.776Z,100061.00
2022-12-06T20:24:51.566Z,100065.00
2022-12-06T20:27:40.783Z,100053.00
2022-12-06T20:30:10.785Z,100055.00
2022-12-06T20:32:39.430Z,100054.00
2022-12-06T20:35:10.093Z,100045.00
2022-12-06T20:37:38.854Z,100043.00
2022-12-06T20:40:09.247Z,100045.00
2022-12-06T20:42:38.042Z,100039.00
2022-12-06T20:45:07.683Z,100034.00
2022-12-06T20:47:36.407Z,100039.00
2022-12-06T20:50:05.914Z,100042.00
2022-12-06T20:52:35.999Z,100032.00
2022-12-06T20:55:04.721Z,100041.00
2022-12-06T20:57:33.398Z,100051.00
2022-12-06T21:00:07.063Z,100045.00
2022-12-06T21:02:36.480Z,100033.00
2022-12-06T21:05:05.710Z,100035.00
2022-12-06T21:07:35.856Z,100033.00
2022-12-06T21:10:04.895Z,100043.00
2022-12-06T21:12:33.680Z,100030.00
2022-12-06T21:15:02.379Z,100046.00
2022-12-06T21:17:33.911Z,100038.00
2022-12-06T21:20:02.841Z,100036.00
2022-12-06T21:22:31.814Z,100038.00
2022-12-06T21:25:02.153Z,100036.00
2022-12-06T21:27:31.142Z,100035.00
2022-12-06T21:30:00.045Z,100040.00
2022-12-06T21:32:28.986Z,100038.00
2022-12-06T21:34:57.687Z,100051.00
2022-12-06T21:37:26.353Z,100041.00
2022-12-06T21:39:55.023Z,100044.00
2022-12-06T21:42:25.084Z,100043.00
2022-12-06T21:44:53.735Z,100032.00
2022-12-06T21:47:22.470Z,100034.00
2022-12-06T21:49:51.157Z,100046.00
2022-12-06T21:52:19.955Z,100044.00
2022-12-06T21:54:48.575Z,100039.00
2022-12-06T21:57:27.977Z,100033.00
2022-12-06T21:59:58.065Z,100032.00
2022-12-06T22:02:26.876Z,100036.00
2022-12-06T22:04:55.605Z,100035.00
2022-12-06T22:07:24.260Z,100035.00
2022-12-06T22:09:53.024Z,100031.00
2022-12-06T22:12:21.916Z,100027.00
2022-12-06T22:14:50.548Z,100027.00
2022-12-06T22:17:20.711Z,100022.00
2022-12-06T22:19:49.625Z,100031.00
2022-12-06T22:22:19.556Z,100029.00
2022-12-06T22:24:48.455Z,100029.00
2022-12-06T22:27:17.055Z,100028.00
2022-12-06T22:29:45.672Z,100012.00
2022-12-06T22:32:14.305Z,100024.00
2022-12-06T22:34:44.304Z,100013.00
2022-12-06T22:37:12.968Z,100019.00
2022-12-06T22:39:41.672Z,100018.00
2022-12-06T22:42:10.412Z,100021.00
2022-12-06T22:44:39.035Z,100010.00
2022-12-06T22:47:07.744Z,100020.00
2022-12-06T22:49:36.412Z,100016.00
2022-12-06T22:52:06.702Z,100022.00
2022-12-06T22:54:35.542Z,100028.00
2022-12-06T22:57:04.238Z,100025.00
2022-12-06T22:59:32.928Z,100024.00
2022-12-06T23:02:01.686Z,100027.00
2022-12-06T23:04:30.451Z,100023.00
2022-12-06T23:06:59.079Z,100024.00
2022-12-06T23:09:29.201Z,100024.00
2022-12-06T23:11:57.899Z,100021.00
2022-12-06T23:14:26.566Z,100019.00
2022-12-06T23:16:55.221Z,100023.00
2022-12-06T23:19:23.909Z,100033.00
2022-12-06T23:21:52.710Z,100017.00
2022-12-06T23:24:21.337Z,100030.00
2022-12-06T23:26:57.494Z,100021.00
2022-12-06T23:29:26.737Z,100028.00
2022-12-06T23:31:55.550Z,100028.00
2022-12-06T23:34:26.600Z,100028.00
2022-12-06T23:36:57.188Z,100021.00
2022-12-06T23:39:25.892Z,100008.00
2022-12-06T23:41:56.153Z,100020.00
2022-12-06T23:44:25.234Z,100018.00
2022-12-06T23:46:54.028Z,100020.00
2022-12-06T23:49:23.488Z,100017.00
2022-12-06T23:51:52.328Z,100018.00
2022-12-06T23:54:21.135Z,100016.00
2022-12-06T23:56:49.820Z,100007.00
2022-12-06T23:59:20.124Z,100014.00
